createdAt,value
2023-02-05T00:02:03.836Z,98519.22
2023-02-05T00:05:00.891Z,98520.06
2023-02-05T00:07:57.741Z,98522.53
2023-02-05T00:10:54.586Z,98516.31
2023-02-05T00:13:51.840Z,98519.09
2023-02-05T00:16:49.116Z,98509.28
2023-02-05T00:19:46.650Z,98509.13
2023-02-05T00:22:43.499Z,98513.69
2023-02-05T00:25:40.331Z,98521.22
2023-02-05T00:28:38.035Z,98522.88
2023-02-05T00:31:35.012Z,98525.97
2023-02-05T00:34:31.925Z,98533.31
2023-02-05T00:37:28.765Z,98533.19
2023-02-05T00:40:25.582Z,98533.66
2023-02-05T00:43:22.431Z,98531.53
2023-02-05T00:46:19.356Z,98534.00
2023-02-05T00:49:16.253Z,98545.75
2023-02-05T00:52:13.189Z,98544.63
2023-02-05T00:55:10.035Z,98534.97
2023-02-05T00:58:06.889Z,98528.41
2023-02-05T01:01:04.919Z,98529.91
2023-02-05T01:04:01.778Z,98525.16
2023-02-05T01:06:58.721Z,98518.63
2023-02-05T01:09:55.605Z,98517.63
2023-02-05T01:12:52.559Z,98513.03
2023-02-05T01:15:49.410Z,98518.41
2023-02-05T01:18:46.248Z,98511.56
2023-02-05T01:21:43.088Z,98510.75
2023-02-05T01:24:39.925Z,98508.31
2023-02-05T01:27:37.615Z,98492.75
2023-02-05T01:30:35.668Z,98493.25
2023-02-05T01:33:32.540Z,98486.03
2023-02-05T01:36:29.351Z,98487.34
2023-02-05T01:39:26.194Z,98492.91
2023-02-05T01:42:29.677Z,98488.00
2023-02-05T01:45:26.887Z,98468.72
2023-02-05T01:48:33.920Z,98463.81
2023-02-05T01:51:33.654Z,98453.53
2023-02-05T01:54:33.615Z,98446.16
2023-02-05T01:57:30.600Z,98440.22
2023-02-05T02:00:27.638Z,98438.81
2023-02-05T02:03:27.954Z,98449.56
2023-02-05T02:06:24.854Z,98448.59
2023-02-05T02:09:22.330Z,98440.41
2023-02-05T02:12:27.834Z,98443.50
2023-02-05T02:15:27.333Z,98439.75
2023-02-05T02:18:26.433Z,98430.28
2023-02-05T02:21:27.104Z,98421.13
2023-02-05T02:24:55.994Z,98427.00
2023-02-05T02:28:04.517Z,98426.19
2023-02-05T02:31:10.644Z,98426.19
2023-02-05T02:34:32.785Z,98428.31
2023-02-05T02:37:44.070Z,98434.81
2023-02-05T02:40:54.545Z,98433.56
2023-02-05T02:43:58.800Z,98426.84
2023-02-05T02:47:01.456Z,98422.91
2023-02-05T02:50:04.886Z,98410.78
2023-02-05T02:53:27.187Z,98420.13
2023-02-05T02:56:27.634Z,98419.13
2023-02-05T02:59:26.911Z,98410.66
2023-02-05T03:02:24.592Z,98394.50
2023-02-05T03:05:24.259Z,98405.28
2023-02-05T03:08:40.047Z,98405.91
2023-02-05T03:11:36.914Z,98395.59
2023-02-05T03:14:34.082Z,98392.03
2023-02-05T03:17:31.155Z,98394.66
2023-02-05T03:20:42.027Z,98394.13
2023-02-05T03:23:38.964Z,98392.69
2023-02-05T03:26:36.476Z,98384.81
2023-02-05T03:29:38.946Z,98377.50
2023-02-05T03:32:48.902Z,98368.66
2023-02-05T03:36:52.637Z,98371.13
2023-02-05T03:40:29.168Z,98363.25
2023-02-05T03:43:45.650Z,98373.06
2023-02-05T03:46:59.504Z,98397.44
2023-02-05T03:50:12.716Z,98398.56
2023-02-05T03:53:37.261Z,98408.88
2023-02-05T03:56:48.980Z,98398.59
2023-02-05T03:59:47.258Z,98395.50
2023-02-05T04:02:44.806Z,98398.25
2023-02-05T04:05:41.612Z,98389.94
2023-02-05T04:08:38.571Z,98387.78
2023-02-05T04:11:35.382Z,98394.81
2023-02-05T04:14:32.215Z,98396.31
2023-02-05T04:17:29.248Z,98395.47
2023-02-05T04:20:26.057Z,98388.94
2023-02-05T04:23:22.965Z,98387.31
2023-02-05T04:26:20.007Z,98380.94
2023-02-05T04:29:16.839Z,98374.53
2023-02-05T04:32:14.225Z,98380.41
2023-02-05T04:35:11.080Z,98385.81
2023-02-05T04:38:07.873Z,98381.91
2023-02-05T04:41:04.804Z,98375.19
2023-02-05T04:44:01.641Z,98382.38
2023-02-05T04:46:58.543Z,98391.06
2023-02-05T04:49:55.567Z,98380.22
2023-02-05T04:52:52.440Z,98391.03
2023-02-05T04:55:49.252Z,98385.47
2023-02-05T04:58:46.424Z,98388.09
2023-02-05T05:01:43.265Z,98390.41
2023-02-05T05:04:42.107Z,98396.44
2023-02-05T05:07:40.087Z,98392.50
2023-02-05T05:10:38.681Z,98382.38
2023-02-05T05:13:36.309Z,98381.41
2023-02-05T05:16:33.153Z,98385.28
2023-02-05T05:19:30.051Z,98377.63
2023-02-05T05:22:26.971Z,98387.59
2023-02-05T05:25:23.780Z,98390.53
2023-02-05T05:28:20.584Z,98379.22
2023-02-05T05:31:19.459Z,98382.66
2023-02-05T05:34:16.351Z,98384.13
2023-02-05T05:37:13.169Z,98381.03
2023-02-05T05:40:45.063Z,98379.41
2023-02-05T05:43:47.473Z,98385.09
2023-02-05T05:46:44.453Z,98379.22
2023-02-05T05:49:41.257Z,98372.53
2023-02-05T05:52:38.064Z,98372.34
2023-02-05T05:55:35.122Z,98381.00
2023-02-05T05:58:32.130Z,98374.25
2023-02-05T06:01:29.021Z,98376.03
2023-02-05T06:04:25.854Z,98378.81
2023-02-05T06:07:22.678Z,98374.69
2023-02-05T06:10:20.333Z,98374.19
2023-02-05T06:13:17.137Z,98377.50
2023-02-05T06:16:14.159Z,98374.72
2023-02-05T06:19:10.979Z,98366.16
2023-02-05T06:22:07.809Z,98364.94
2023-02-05T06:25:05.544Z,98364.84
2023-02-05T06:28:02.575Z,98366.13
2023-02-05T06:30:59.463Z,98365.63
2023-02-05T06:33:56.319Z,98358.06
2023-02-05T06:36:53.196Z,98358.88
2023-02-05T06:39:50.072Z,98361.19
2023-02-05T06:42:46.937Z,98364.69
2023-02-05T06:45:43.781Z,98362.94
2023-02-05T06:48:40.566Z,98359.09
2023-02-05T06:51:37.431Z,98346.47
2023-02-05T06:54:34.244Z,98352.28
2023-02-05T06:57:31.942Z,98346.41
2023-02-05T07:00:30.966Z,98343.69
2023-02-05T07:03:28.966Z,98346.66
2023-02-05T07:06:26.811Z,98338.31
2023-02-05T07:09:24.745Z,98343.34
2023-02-05T07:12:22.323Z,98335.09
2023-02-05T07:15:19.547Z,98331.16
2023-02-05T07:18:16.585Z,98332.59
2023-02-05T07:21:17.213Z,98331.56
2023-02-05T07:24:15.163Z,98328.75
2023-02-05T07:27:12.150Z,98331.56
2023-02-05T07:30:09.983Z,98320.03
2023-02-05T07:33:06.950Z,98315.63
2023-02-05T07:36:06.734Z,98312.75
2023-02-05T07:39:03.983Z,98305.84
2023-02-05T07:42:01.240Z,98301.16
2023-02-05T07:44:58.199Z,98303.50
2023-02-05T07:47:55.027Z,98296.38
2023-02-05T07:50:52.092Z,98302.59
2023-02-05T07:53:49.757Z,98303.94
2023-02-05T07:56:46.721Z,98303.53
2023-02-05T07:59:43.690Z,98305.06
2023-02-05T08:02:40.554Z,98312.94
2023-02-05T08:05:39.066Z,98309.88
2023-02-05T08:08:35.890Z,98308.28
2023-02-05T08:11:32.847Z,98309.97
2023-02-05T08:14:31.236Z,98304.81
2023-02-05T08:17:28.058Z,98295.22
2023-02-05T08:20:24.923Z,98291.78
2023-02-05T08:23:22.102Z,98288.78
2023-02-05T08:26:19.396Z,98281.28
2023-02-05T08:29:16.237Z,98280.75
2023-02-05T08:32:13.085Z,98282.56
2023-02-05T08:35:09.942Z,98263.94
2023-02-05T08:38:06.942Z,98249.75
2023-02-05T08:41:12.555Z,98255.63
2023-02-05T08:44:09.887Z,98250.28
2023-02-05T08:47:06.787Z,98260.44
2023-02-05T08:50:05.500Z,98246.31
2023-02-05T08:53:02.398Z,98256.41
2023-02-05T08:56:02.415Z,98258.66
2023-02-05T08:58:59.225Z,98247.31
2023-02-05T09:01:56.076Z,98250.25
2023-02-05T09:05:01.879Z,98234.78
2023-02-05T09:08:04.769Z,98234.59
2023-02-05T09:11:02.107Z,98224.06
2023-02-05T09:13:59.134Z,98215.44
2023-02-05T09:16:56.133Z,98218.13
2023-02-05T09:19:53.094Z,98210.59
2023-02-05T09:22:52.170Z,98210.84
2023-02-05T09:25:49.263Z,98200.19
2023-02-05T09:28:47.274Z,98202.59
2023-02-05T09:31:44.190Z,98202.44
2023-02-05T09:34:41.272Z,98211.00
2023-02-05T09:37:39.160Z,98210.78
2023-02-05T09:41:02.653Z,98215.03
2023-02-05T09:44:28.614Z,98209.91
2023-02-05T09:47:39.678Z,98202.25
2023-02-05T09:50:37.991Z,98206.47
2023-02-05T09:53:42.744Z,98206.72
2023-02-05T09:56:40.119Z,98210.66
2023-02-05T09:59:37.239Z,98209.59
2023-02-05T10:02:53.483Z,98213.94
2023-02-05T10:06:29.991Z,98210.56
2023-02-05T10:09:58.029Z,98213.59
2023-02-05T10:13:35.983Z,98216.91
2023-02-05T10:17:12.145Z,98207.44
2023-02-05T10:20:44.778Z,98194.53
2023-02-05T10:24:36.089Z,98203.03
2023-02-05T10:28:20.001Z,98191.25
2023-02-05T10:31:50.734Z,98185.44
2023-02-05T10:35:13.302Z,98183.81
2023-02-05T10:38:26.300Z,98176.97
2023-02-05T10:41:42.937Z,98170.22
2023-02-05T10:44:49.719Z,98177.34
2023-02-05T10:48:15.045Z,98180.25
2023-02-05T10:51:15.842Z,98176.53
2023-02-05T10:54:29.438Z,98172.34
2023-02-05T10:57:35.996Z,98169.06
2023-02-05T11:00:33.631Z,98160.97
2023-02-05T11:03:31.123Z,98166.56
2023-02-05T11:06:36.256Z,98157.94
2023-02-05T11:09:35.284Z,98158.53
2023-02-05T11:12:32.734Z,98148.63
2023-02-05T11:15:32.742Z,98142.97
2023-02-05T11:18:55.512Z,98142.19
2023-02-05T11:22:02.695Z,98128.69
2023-02-05T11:25:22.513Z,98130.38
2023-02-05T11:28:30.640Z,98132.03
2023-02-05T11:31:33.395Z,98126.09
2023-02-05T11:34:30.290Z,98121.66
2023-02-05T11:37:27.140Z,98117.84
2023-02-05T11:40:30.959Z,98135.03
2023-02-05T11:43:36.081Z,98115.59
2023-02-05T11:46:43.315Z,98119.66
2023-02-05T11:49:41.571Z,98124.13
2023-02-05T11:52:38.471Z,98128.50
2023-02-05T11:55:36.327Z,98121.22
2023-02-05T11:58:37.596Z,98123.06
2023-02-05T12:01:35.800Z,98117.16
2023-02-05T12:04:44.968Z,98111.13
2023-02-05T12:08:19.475Z,98113.97
2023-02-05T12:12:03.693Z,98119.16
2023-02-05T12:15:20.780Z,98122.44
2023-02-05T12:18:58.911Z,98127.50
2023-02-05T12:22:12.277Z,98121.09
2023-02-05T12:25:22.910Z,98114.16
2023-02-05T12:28:53.346Z,98116.63
2023-02-05T12:32:27.536Z,98115.81
2023-02-05T12:35:47.238Z,98112.97
2023-02-05T12:39:03.136Z,98109.16
2023-02-05T12:42:27.820Z,98116.84
2023-02-05T12:46:00.562Z,98126.91
2023-02-05T12:49:56.332Z,98131.34
2023-02-05T12:53:22.048Z,98128.28
2023-02-05T12:56:48.383Z,98127.03
2023-02-05T13:00:05.539Z,98119.78
2023-02-05T13:03:44.631Z,98120.97
2023-02-05T13:06:50.027Z,98124.00
2023-02-05T13:09:59.656Z,98126.22
2023-02-05T13:13:11.350Z,98132.66
2023-02-05T13:16:16.107Z,98121.63
2023-02-05T13:19:42.004Z,98121.16
2023-02-05T13:23:07.362Z,98116.28
2023-02-05T13:26:25.450Z,98112.06
2023-02-05T13:29:27.091Z,98118.41
2023-02-05T13:32:31.170Z,98109.72
2023-02-05T13:35:38.559Z,98102.06
2023-02-05T13:39:05.847Z,98096.38
2023-02-05T13:43:12.370Z,98099.59
2023-02-05T13:46:36.328Z,98110.38
2023-02-05T13:50:04.640Z,98103.03
2023-02-05T13:53:19.483Z,98109.31
2023-02-05T13:56:37.502Z,98113.22
2023-02-05T13:59:43.481Z,98112.66
2023-02-05T14:02:49.440Z,98102.66
2023-02-05T14:05:46.432Z,98112.44
2023-02-05T14:08:44.125Z,98119.47
2023-02-05T14:11:54.590Z,98122.75
2023-02-05T14:15:36.258Z,98130.66
2023-02-05T14:18:45.137Z,98123.97
2023-02-05T14:21:44.808Z,98116.88
2023-02-05T14:24:48.486Z,98112.84
2023-02-05T14:27:49.725Z,98121.16
2023-02-05T14:30:58.727Z,98130.72
2023-02-05T14:34:33.150Z,98141.44
2023-02-05T14:37:42.331Z,98140.81
2023-02-05T14:40:39.515Z,98147.47
2023-02-05T14:43:40.052Z,98143.41
2023-02-05T14:46:43.059Z,98140.78
2023-02-05T14:49:45.003Z,98140.81
2023-02-05T14:52:52.359Z,98140.59
2023-02-05T14:55:55.528Z,98152.13
2023-02-05T14:59:01.858Z,98150.66
2023-02-05T15:02:00.064Z,98149.00
2023-02-05T15:04:58.932Z,98141.38
2023-02-05T15:08:10.925Z,98135.75
2023-02-05T15:11:53.875Z,98134.09
2023-02-05T15:14:56.639Z,98135.94
2023-02-05T15:17:55.308Z,98132.09
2023-02-05T15:20:56.384Z,98127.03
2023-02-05T15:24:22.748Z,98132.72
2023-02-05T15:27:29.910Z,98129.88
2023-02-05T15:30:33.371Z,98136.16
2023-02-05T15:33:52.205Z,98136.94
2023-02-05T15:37:23.191Z,98145.78
2023-02-05T15:40:34.485Z,98152.34
2023-02-05T15:43:31.293Z,98164.28
2023-02-05T15:46:31.284Z,98170.97
2023-02-05T15:49:36.006Z,98172.19
2023-02-05T15:52:33.318Z,98178.91
2023-02-05T15:55:30.628Z,98184.78
2023-02-05T15:58:29.347Z,98182.13
2023-02-05T16:01:36.024Z,98184.78
2023-02-05T16:04:37.585Z,98189.25
2023-02-05T16:07:43.260Z,98195.91
2023-02-05T16:10:58.750Z,98204.25
2023-02-05T16:14:17.177Z,98217.78
2023-02-05T16:17:21.926Z,98236.22
2023-02-05T16:20:38.950Z,98241.91
2023-02-05T16:23:44.369Z,98252.81
2023-02-05T16:26:46.880Z,98250.78
2023-02-05T16:29:56.825Z,98252.84
2023-02-05T16:32:56.848Z,98250.78
2023-02-05T16:35:54.857Z,98257.66
2023-02-05T16:38:58.397Z,98267.53
2023-02-05T16:42:30.661Z,98269.59
2023-02-05T16:45:31.151Z,98264.56
2023-02-05T16:48:30.116Z,98260.75
2023-02-05T16:51:45.140Z,98258.47
2023-02-05T16:54:42.565Z,98250.56
2023-02-05T16:57:42.188Z,98263.31
2023-02-05T17:00:39.157Z,98260.47
2023-02-05T17:03:40.343Z,98265.72
2023-02-05T17:06:38.318Z,98265.94
2023-02-05T17:09:38.866Z,98266.56
2023-02-05T17:12:39.743Z,98272.16
2023-02-05T17:15:40.318Z,98274.53
2023-02-05T17:18:37.208Z,98271.34
2023-02-05T17:21:36.641Z,98266.88
2023-02-05T17:24:33.462Z,98272.63
2023-02-05T17:27:39.359Z,98273.00
2023-02-05T17:30:36.614Z,98282.09
2023-02-05T17:33:33.665Z,98289.38
2023-02-05T17:36:30.937Z,98302.56
2023-02-05T17:39:27.782Z,98301.94
2023-02-05T17:42:28.476Z,98306.03
2023-02-05T17:45:28.365Z,98302.47
2023-02-05T17:48:25.206Z,98306.84
2023-02-05T17:51:24.394Z,98310.03
2023-02-05T17:54:25.330Z,98303.31
2023-02-05T17:57:23.482Z,98308.56
2023-02-05T18:00:24.199Z,98305.56
2023-02-05T18:03:21.162Z,98300.53
2023-02-05T18:06:18.728Z,98307.34
2023-02-05T18:09:16.507Z,98308.91
2023-02-05T18:12:13.358Z,98299.53
2023-02-05T18:15:11.558Z,98310.03
2023-02-05T18:18:08.898Z,98312.59
2023-02-05T18:21:08.819Z,98314.44
2023-02-05T18:24:05.946Z,98304.25
2023-02-05T18:27:05.961Z,98311.34
2023-02-05T18:30:03.404Z,98307.88
2023-02-05T18:33:02.143Z,98322.53
2023-02-05T18:36:04.500Z,98317.91
2023-02-05T18:39:01.408Z,98321.00
2023-02-05T18:41:58.740Z,98334.28
2023-02-05T18:44:55.686Z,98347.59
2023-02-05T18:47:52.485Z,98345.50
2023-02-05T18:50:49.340Z,98334.72
2023-02-05T18:53:47.444Z,98336.91
2023-02-05T18:56:44.279Z,98339.31
2023-02-05T18:59:41.105Z,98346.47
2023-02-05T19:02:39.883Z,98351.16
2023-02-05T19:05:36.705Z,98359.34
2023-02-05T19:08:33.653Z,98358.38
2023-02-05T19:11:31.068Z,98357.56
2023-02-05T19:14:28.392Z,98357.50
2023-02-05T19:17:27.333Z,98361.16
2023-02-05T19:20:24.227Z,98371.00
2023-02-05T19:23:21.029Z,98376.78
2023-02-05T19:26:22.071Z,98384.06
2023-02-05T19:29:20.310Z,98380.50
2023-02-05T19:32:17.133Z,98384.13
2023-02-05T19:35:14.270Z,98381.13
2023-02-05T19:38:11.151Z,98377.63
2023-02-05T19:41:12.543Z,98372.81
2023-02-05T19:44:09.576Z,98367.63
2023-02-05T19:47:06.828Z,98375.50
2023-02-05T19:50:03.713Z,98374.56
2023-02-05T19:53:00.942Z,98378.03
2023-02-05T19:56:17.219Z,98373.13
2023-02-05T19:59:16.285Z,98363.09
2023-02-05T20:02:19.068Z,98358.94
2023-02-05T20:05:15.982Z,98371.28
2023-02-05T20:08:12.824Z,98378.91
2023-02-05T20:11:10.596Z,98380.66
2023-02-05T20:14:08.406Z,98379.59
2023-02-05T20:17:05.329Z,98376.78
2023-02-05T20:20:13.884Z,98385.56
2023-02-05T20:23:12.712Z,98400.53
2023-02-05T20:26:10.546Z,98406.28
2023-02-05T20:29:26.204Z,98400.13
2023-02-05T20:32:23.047Z,98404.22
2023-02-05T20:35:20.734Z,98401.84
2023-02-05T20:38:17.528Z,98401.28
2023-02-05T20:41:18.069Z,98413.63
2023-02-05T20:44:15.826Z,98424.72
2023-02-05T20:47:14.513Z,98432.03
2023-02-05T20:50:11.852Z,98421.97
2023-02-05T20:53:08.680Z,98435.88
2023-02-05T20:56:09.408Z,98434.31
2023-02-05T20:59:07.962Z,98426.19
2023-02-05T21:02:05.524Z,98422.66
2023-02-05T21:05:02.390Z,98423.41
2023-02-05T21:07:59.240Z,98420.53
2023-02-05T21:10:56.067Z,98411.94
2023-02-05T21:13:53.538Z,98423.47
2023-02-05T21:16:50.446Z,98420.75
2023-02-05T21:19:47.253Z,98429.13
2023-02-05T21:22:44.101Z,98431.13
2023-02-05T21:25:40.966Z,98442.91
2023-02-05T21:28:37.842Z,98440.97
2023-02-05T21:31:40.360Z,98441.19
2023-02-05T21:34:37.253Z,98436.31
2023-02-05T21:37:34.073Z,98447.75
2023-02-05T21:40:30.863Z,98457.50
2023-02-05T21:43:27.666Z,98469.16
2023-02-05T21:46:26.695Z,98477.25
2023-02-05T21:49:23.513Z,98486.47
2023-02-05T21:52:20.334Z,98473.09
2023-02-05T21:55:17.141Z,98491.50
2023-02-05T21:58:13.962Z,98495.75
2023-02-05T22:01:18.792Z,98496.47
2023-02-05T22:04:16.794Z,98497.56
2023-02-05T22:07:13.619Z,98497.09
2023-02-05T22:10:10.443Z,98495.94
2023-02-05T22:13:07.248Z,98505.50
2023-02-05T22:16:14.927Z,98504.50
2023-02-05T22:19:11.750Z,98510.50
2023-02-05T22:22:08.587Z,98512.28
2023-02-05T22:25:05.756Z,98510.31
2023-02-05T22:28:02.813Z,98514.69
2023-02-05T22:31:12.339Z,98515.25
2023-02-05T22:34:09.155Z,98512.44
2023-02-05T22:37:06.273Z,98504.88
2023-02-05T22:40:03.310Z,98507.59
2023-02-05T22:43:00.124Z,98514.59
2023-02-05T22:46:02.581Z,98505.78
2023-02-05T22:49:02.575Z,98503.31
2023-02-05T22:51:59.376Z,98512.34
2023-02-05T22:54:56.169Z,98502.97
2023-02-05T22:57:52.992Z,98503.69
2023-02-05T23:00:49.866Z,98502.44
2023-02-05T23:03:49.210Z,98508.28
2023-02-05T23:06:46.274Z,98502.88
2023-02-05T23:09:43.075Z,98509.22
2023-02-05T23:12:39.901Z,98503.63
2023-02-05T23:15:36.956Z,98496.34
2023-02-05T23:18:34.850Z,98499.59
2023-02-05T23:21:34.614Z,98512.25
2023-02-05T23:24:31.427Z,98506.16
2023-02-05T23:27:29.446Z,98514.66
2023-02-05T23:30:26.400Z,98518.00
2023-02-05T23:33:23.223Z,98524.78
2023-02-05T23:36:20.298Z,98522.50
2023-02-05T23:39:17.226Z,98527.44
2023-02-05T23:42:14.066Z,98516.31
2023-02-05T23:45:10.922Z,98510.94
2023-02-05T23:48:07.756Z,98512.84
2023-02-05T23:51:04.574Z,98513.13
2023-02-05T23:54:02.446Z,98516.19
2023-02-05T23:56:59.313Z,98515.38
2023-02-05T23:59:56.131Z,98513.66
